sensor_id;sensor_type;location;lat;lon;timestamp;pressure;altitude;pressure_sealevel;temperature;humidity
35419;BME280;21525;41.240;16.500;2022-09-21T00:00:36;101417.66;;;25.01;62.33
35419;BME280;21525;41.240;16.500;2022-09-21T00:03:03;101422.94;;;25.30;61.84
35419;BME280;21525;41.240;16.500;2022-09-21T00:05:30;101410.38;;;25.32;61.45
35419;BME280;21525;41.240;16.500;2022-09-21T00:08:04;101424.38;;;25.21;61.60
35419;BME280;21525;41.240;16.500;2022-09-21T00:10:31;101427.44;;;25.01;62.18
35419;BME280;21525;41.240;16.500;2022-09-21T00:12:58;101419.31;;;25.02;61.89
35419;BME280;21525;41.240;16.500;2022-09-21T00:15:25;101424.56;;;25.18;60.65
35419;BME280;21525;41.240;16.500;2022-09-21T00:17:52;101429.09;;;25.44;59.53
35419;BME280;21525;41.240;16.500;2022-09-21T00:20:19;101423.22;;;25.11;60.09
35419;BME280;21525;41.240;16.500;2022-09-21T00:22:49;101424.00;;;25.13;57.59
35419;BME280;21525;41.240;16.500;2022-09-21T00:25:17;101430.25;;;25.26;57.21
35419;BME280;21525;41.240;16.500;2022-09-21T00:27:43;101424.97;;;24.98;56.76
35419;BME280;21525;41.240;16.500;2022-09-21T00:30:10;101419.97;;;24.63;56.77
35419;BME280;21525;41.240;16.500;2022-09-21T00:32:37;101416.66;;;24.88;56.14
35419;BME280;21525;41.240;16.500;2022-09-21T00:35:05;101428.13;;;24.60;55.84
35419;BME280;21525;41.240;16.500;2022-09-21T00:37:33;101422.66;;;24.92;54.27
35419;BME280;21525;41.240;16.500;2022-09-21T00:39:59;101419.03;;;24.64;54.77
35419;BME280;21525;41.240;16.500;2022-09-21T00:42:30;101419.22;;;24.90;52.71
35419;BME280;21525;41.240;16.500;2022-09-21T00:44:57;101420.13;;;24.46;53.44
35419;BME280;21525;41.240;16.500;2022-09-21T00:47:43;101413.31;;;24.70;52.26
35419;BME280;21525;41.240;16.500;2022-09-21T00:50:15;101416.53;;;24.61;52.53
35419;BME280;21525;41.240;16.500;2022-09-21T00:52:50;101411.50;;;24.57;52.35
35419;BME280;21525;41.240;16.500;2022-09-21T00:55:22;101409.56;;;24.15;52.31
35419;BME280;21525;41.240;16.500;2022-09-21T00:57:54;101413.25;;;24.42;51.11
35419;BME280;21525;41.240;16.500;2022-09-21T01:00:22;101411.81;;;24.66;51.26
35419;BME280;21525;41.240;16.500;2022-09-21T01:07:09;101421.44;;;23.93;51.61
35419;BME280;21525;41.240;16.500;2022-09-21T01:09:38;101424.06;;;24.25;52.50
35419;BME280;21525;41.240;16.500;2022-09-21T01:15:02;101418.47;;;24.13;51.95
35419;BME280;21525;41.240;16.500;2022-09-21T01:37:39;101400.88;;;23.97;49.22
35419;BME280;21525;41.240;16.500;2022-09-21T01:40:12;101400.72;;;24.44;47.75
35419;BME280;21525;41.240;16.500;2022-09-21T01:42:40;101403.81;;;24.06;47.42
35419;BME280;21525;41.240;16.500;2022-09-21T01:45:10;101393.72;;;24.71;46.40
35419;BME280;21525;41.240;16.500;2022-09-21T01:47:40;101397.28;;;23.98;47.74
35419;BME280;21525;41.240;16.500;2022-09-21T01:50:08;101399.69;;;23.87;47.54
35419;BME280;21525;41.240;16.500;2022-09-21T01:52:46;101393.81;;;24.56;46.23
35419;BME280;21525;41.240;16.500;2022-09-21T01:55:24;101387.38;;;24.74;45.28
35419;BME280;21525;41.240;16.500;2022-09-21T02:00:18;101387.75;;;24.54;45.12
35419;BME280;21525;41.240;16.500;2022-09-21T02:05:30;101393.16;;;24.52;45.27
35419;BME280;21525;41.240;16.500;2022-09-21T02:07:57;101388.38;;;24.43;45.09
35419;BME280;21525;41.240;16.500;2022-09-21T02:10:33;101383.28;;;24.54;44.61
35419;BME280;21525;41.240;16.500;2022-09-21T02:13:01;101390.69;;;24.35;45.23
35419;BME280;21525;41.240;16.500;2022-09-21T02:18:42;101377.00;;;24.55;44.50
35419;BME280;21525;41.240;16.500;2022-09-21T02:24:11;101383.69;;;24.91;43.48
35419;BME280;21525;41.240;16.500;2022-09-21T02:26:44;101378.00;;;24.68;43.91
35419;BME280;21525;41.240;16.500;2022-09-21T02:31:55;101373.78;;;25.07;42.87
35419;BME280;21525;41.240;16.500;2022-09-21T02:36:57;101375.69;;;24.62;43.79
35419;BME280;21525;41.240;16.500;2022-09-21T02:42:33;101387.25;;;24.47;43.82
35419;BME280;21525;41.240;16.500;2022-09-21T02:47:40;101384.72;;;24.88;42.88
35419;BME280;21525;41.240;16.500;2022-09-21T02:50:19;101389.72;;;24.36;44.05
35419;BME280;21525;41.240;16.500;2022-09-21T02:52:47;101381.78;;;24.64;42.79
35419;BME280;21525;41.240;16.500;2022-09-21T02:55:16;101374.16;;;25.15;41.97
35419;BME280;21525;41.240;16.500;2022-09-21T02:57:43;101373.03;;;24.76;42.91
35419;BME280;21525;41.240;16.500;2022-09-21T03:00:10;101378.50;;;24.31;43.36
35419;BME280;21525;41.240;16.500;2022-09-21T03:02:42;101380.78;;;24.37;43.71
35419;BME280;21525;41.240;16.500;2022-09-21T03:05:09;101387.94;;;24.36;43.26
35419;BME280;21525;41.240;16.500;2022-09-21T03:07:36;101377.50;;;24.62;42.75
35419;BME280;21525;41.240;16.500;2022-09-21T03:10:02;101381.78;;;24.64;42.86
35419;BME280;21525;41.240;16.500;2022-09-21T03:12:28;101382.47;;;24.38;43.32
35419;BME280;21525;41.240;16.500;2022-09-21T03:14:55;101379.03;;;24.66;42.64
35419;BME280;21525;41.240;16.500;2022-09-21T03:17:21;101392.16;;;24.39;43.29
35419;BME280;21525;41.240;16.500;2022-09-21T03:19:47;101393.09;;;24.68;42.63
35419;BME280;21525;41.240;16.500;2022-09-21T03:22:13;101392.03;;;24.70;42.57
35419;BME280;21525;41.240;16.500;2022-09-21T03:24:39;101395.16;;;24.49;42.75
35419;BME280;21525;41.240;16.500;2022-09-21T03:27:19;101399.81;;;24.59;42.68
35419;BME280;21525;41.240;16.500;2022-09-21T03:29:45;101394.13;;;24.65;42.67
35419;BME280;21525;41.240;16.500;2022-09-21T03:32:12;101405.31;;;24.56;43.05
35419;BME280;21525;41.240;16.500;2022-09-21T03:34:39;101398.28;;;24.55;42.44
35419;BME280;21525;41.240;16.500;2022-09-21T03:37:06;101402.94;;;24.52;42.46
35419;BME280;21525;41.240;16.500;2022-09-21T03:39:32;101407.53;;;25.06;41.78
35419;BME280;21525;41.240;16.500;2022-09-21T03:41:58;101404.28;;;24.73;42.03
35419;BME280;21525;41.240;16.500;2022-09-21T03:44:24;101397.19;;;25.16;41.44
35419;BME280;21525;41.240;16.500;2022-09-21T03:46:51;101401.78;;;24.41;42.57
35419;BME280;21525;41.240;16.500;2022-09-21T03:49:18;101402.50;;;24.88;41.65
35419;BME280;21525;41.240;16.500;2022-09-21T03:51:44;101398.50;;;25.09;41.17
35419;BME280;21525;41.240;16.500;2022-09-21T03:54:11;101402.44;;;24.45;41.93
35419;BME280;21525;41.240;16.500;2022-09-21T03:56:37;101404.38;;;24.71;41.92
35419;BME280;21525;41.240;16.500;2022-09-21T03:59:03;101402.63;;;24.42;42.14
35419;BME280;21525;41.240;16.500;2022-09-21T04:01:28;101413.91;;;24.90;41.48
35419;BME280;21525;41.240;16.500;2022-09-21T04:03:54;101414.31;;;24.98;40.93
35419;BME280;21525;41.240;16.500;2022-09-21T04:06:20;101423.84;;;24.58;41.91
35419;BME280;21525;41.240;16.500;2022-09-21T04:08:46;101416.16;;;24.82;41.72
35419;BME280;21525;41.240;16.500;2022-09-21T04:11:14;101418.03;;;24.95;40.92
35419;BME280;21525;41.240;16.500;2022-09-21T04:13:41;101414.31;;;24.98;40.98
35419;BME280;21525;41.240;16.500;2022-09-21T04:16:08;101415.41;;;24.65;41.79
35419;BME280;21525;41.240;16.500;2022-09-21T04:18:35;101417.94;;;24.97;40.88
35419;BME280;21525;41.240;16.500;2022-09-21T04:21:02;101413.22;;;24.72;41.07
35419;BME280;21525;41.240;16.500;2022-09-21T04:23:28;101424.28;;;24.36;41.79
35419;BME280;21525;41.240;16.500;2022-09-21T04:25:54;101419.13;;;24.63;41.74
35419;BME280;21525;41.240;16.500;2022-09-21T04:28:20;101416.53;;;24.75;41.52
35419;BME280;21525;41.240;16.500;2022-09-21T04:30:46;101424.34;;;24.64;41.30
35419;BME280;21525;41.240;16.500;2022-09-21T04:33:11;101420.56;;;25.25;40.44
35419;BME280;21525;41.240;16.500;2022-09-21T04:35:38;101417.88;;;24.83;40.98
35419;BME280;21525;41.240;16.500;2022-09-21T04:38:04;101422.84;;;24.89;40.45
35419;BME280;21525;41.240;16.500;2022-09-21T04:40:30;101429.25;;;24.70;41.33
35419;BME280;21525;41.240;16.500;2022-09-21T04:42:56;101433.38;;;24.16;42.01
35419;BME280;21525;41.240;16.500;2022-09-21T04:45:23;101434.06;;;24.20;41.93
35419;BME280;21525;41.240;16.500;2022-09-21T04:47:49;101443.69;;;24.52;41.43
35419;BME280;21525;41.240;16.500;2022-09-21T04:50:15;101441.16;;;24.65;41.29
35419;BME280;21525;41.240;16.500;2022-09-21T04:52:41;101440.84;;;24.55;40.98
35419;BME280;21525;41.240;16.500;2022-09-21T04:55:07;101454.91;;;24.57;41.24
35419;BME280;21525;41.240;16.500;2022-09-21T04:57:33;101451.91;;;24.92;40.55
35419;BME280;21525;41.240;16.500;2022-09-21T05:00:01;101460.81;;;24.76;41.19
35419;BME280;21525;41.240;16.500;2022-09-21T05:02:27;101462.97;;;25.00;40.78
35419;BME280;21525;41.240;16.500;2022-09-21T05:04:53;101458.91;;;24.78;40.69
35419;BME280;21525;41.240;16.500;2022-09-21T05:07:19;101458.97;;;25.07;40.23
35419;BME280;21525;41.240;16.500;2022-09-21T05:09:45;101462.22;;;24.98;40.12
35419;BME280;21525;41.240;16.500;2022-09-21T05:12:33;101466.84;;;24.50;40.92
35419;BME280;21525;41.240;16.500;2022-09-21T05:15:00;101463.94;;;24.25;41.50
35419;BME280;21525;41.240;16.500;2022-09-21T05:17:26;101449.53;;;24.87;40.25
35419;BME280;21525;41.240;16.500;2022-09-21T05:19:52;101457.25;;;25.06;39.50
35419;BME280;21525;41.240;16.500;2022-09-21T05:22:19;101463.97;;;24.69;40.44
35419;BME280;21525;41.240;16.500;2022-09-21T05:24:45;101464.97;;;24.52;40.76
35419;BME280;21525;41.240;16.500;2022-09-21T05:27:11;101471.84;;;24.85;40.49
35419;BME280;21525;41.240;16.500;2022-09-21T05:29:38;101461.78;;;24.90;40.18
35419;BME280;21525;41.240;16.500;2022-09-21T05:35:30;101457.19;;;27.58;36.45
35419;BME280;21525;41.240;16.500;2022-09-21T05:38:15;101450.25;;;29.53;33.54
35419;BME280;21525;41.240;16.500;2022-09-21T05:40:43;101461.94;;;30.59;32.12
35419;BME280;21525;41.240;16.500;2022-09-21T05:43:10;101436.44;;;32.33;29.19
35419;BME280;21525;41.240;16.500;2022-09-21T05:45:43;101444.06;;;32.18;29.49
35419;BME280;21525;41.240;16.500;2022-09-21T05:48:40;101443.94;;;32.20;29.55
35419;BME280;21525;41.240;16.500;2022-09-21T05:56:56;101451.75;;;34.52;26.78
35419;BME280;21525;41.240;16.500;2022-09-21T05:59:34;101463.38;;;34.70;26.64
35419;BME280;21525;41.240;16.500;2022-09-21T06:04:40;101454.81;;;35.34;25.58
35419;BME280;21525;41.240;16.500;2022-09-21T06:07:06;101457.50;;;36.09;24.86
35419;BME280;21525;41.240;16.500;2022-09-21T06:09:32;101463.78;;;36.50;24.19
35419;BME280;21525;41.240;16.500;2022-09-21T06:11:58;101455.72;;;37.53;23.32
35419;BME280;21525;41.240;16.500;2022-09-21T06:14:24;101456.00;;;37.66;23.40
35419;BME280;21525;41.240;16.500;2022-09-21T06:16:51;101452.31;;;37.82;22.89
35419;BME280;21525;41.240;16.500;2022-09-21T06:19:17;101460.25;;;37.69;22.97
35419;BME280;21525;41.240;16.500;2022-09-21T06:21:43;101458.22;;;37.15;23.17
35419;BME280;21525;41.240;16.500;2022-09-21T06:24:09;101463.59;;;38.62;22.44
35419;BME280;21525;41.240;16.500;2022-09-21T06:26:36;101464.31;;;37.64;23.04
35419;BME280;21525;41.240;16.500;2022-09-21T06:29:02;101472.41;;;38.41;22.14
35419;BME280;21525;41.240;16.500;2022-09-21T06:31:29;101466.34;;;39.21;21.67
35419;BME280;21525;41.240;16.500;2022-09-21T06:33:55;101476.03;;;38.56;21.61
35419;BME280;21525;41.240;16.500;2022-09-21T06:36:21;101470.22;;;38.22;22.43
35419;BME280;21525;41.240;16.500;2022-09-21T06:38:47;101469.50;;;38.28;22.68
35419;BME280;21525;41.240;16.500;2022-09-21T06:41:13;101472.16;;;39.18;21.91
35419;BME280;21525;41.240;16.500;2022-09-21T06:43:39;101470.28;;;39.18;21.89
35419;BME280;21525;41.240;16.500;2022-09-21T06:46:04;101473.28;;;39.09;22.45
35419;BME280;21525;41.240;16.500;2022-09-21T06:48:32;101472.94;;;40.20;21.28
35419;BME280;21525;41.240;16.500;2022-09-21T06:50:58;101479.38;;;39.25;21.95
35419;BME280;21525;41.240;16.500;2022-09-21T06:53:26;101473.00;;;39.69;22.08
35419;BME280;21525;41.240;16.500;2022-09-21T06:55:52;101473.94;;;39.97;21.93
35419;BME280;21525;41.240;16.500;2022-09-21T06:58:18;101480.31;;;39.69;21.47
35419;BME280;21525;41.240;16.500;2022-09-21T07:00:44;101481.16;;;40.26;21.47
35419;BME280;21525;41.240;16.500;2022-09-21T07:03:11;101484.59;;;39.42;22.30
35419;BME280;21525;41.240;16.500;2022-09-21T07:05:43;101483.47;;;39.87;22.39
35419;BME280;21525;41.240;16.500;2022-09-21T07:08:09;101488.19;;;39.93;22.45
35419;BME280;21525;41.240;16.500;2022-09-21T07:10:35;101489.69;;;39.95;22.35
35419;BME280;21525;41.240;16.500;2022-09-21T07:13:02;101484.31;;;40.51;22.08
35419;BME280;21525;41.240;16.500;2022-09-21T07:15:29;101497.88;;;39.30;22.83
35419;BME280;21525;41.240;16.500;2022-09-21T07:17:55;101502.22;;;38.72;23.85
35419;BME280;21525;41.240;16.500;2022-09-21T07:20:21;101498.97;;;38.08;25.26
35419;BME280;21525;41.240;16.500;2022-09-21T07:22:47;101505.22;;;37.55;26.00
35419;BME280;21525;41.240;16.500;2022-09-21T07:25:13;101513.88;;;37.03;26.33
35419;BME280;21525;41.240;16.500;2022-09-21T07:27:39;101522.53;;;36.90;26.92
35419;BME280;21525;41.240;16.500;2022-09-21T07:30:06;101514.22;;;37.00;27.01
35419;BME280;21525;41.240;16.500;2022-09-21T07:32:33;101519.09;;;37.13;25.47
35419;BME280;21525;41.240;16.500;2022-09-21T07:34:59;101511.84;;;36.24;26.70
35419;BME280;21525;41.240;16.500;2022-09-21T07:37:26;101520.88;;;36.49;26.67
35419;BME280;21525;41.240;16.500;2022-09-21T07:39:52;101524.44;;;36.65;26.26
35419;BME280;21525;41.240;16.500;2022-09-21T07:42:19;101521.31;;;36.12;27.24
35419;BME280;21525;41.240;16.500;2022-09-21T07:44:47;101537.84;;;33.47;28.11
35419;BME280;21525;41.240;16.500;2022-09-21T07:47:13;101531.56;;;33.83;26.01
35419;BME280;21525;41.240;16.500;2022-09-21T07:49:40;101536.00;;;33.10;26.41
35419;BME280;21525;41.240;16.500;2022-09-21T07:52:06;101538.59;;;32.73;27.48
35419;BME280;21525;41.240;16.500;2022-09-21T07:54:34;101543.34;;;32.02;28.67
35419;BME280;21525;41.240;16.500;2022-09-21T07:57:00;101534.19;;;32.82;28.62
35419;BME280;21525;41.240;16.500;2022-09-21T07:59:44;101546.72;;;33.29;27.37
35419;BME280;21525;41.240;16.500;2022-09-21T08:02:11;101554.44;;;33.52;26.81
35419;BME280;21525;41.240;16.500;2022-09-21T08:04:37;101557.25;;;33.87;25.80
35419;BME280;21525;41.240;16.500;2022-09-21T08:07:03;101562.75;;;33.21;25.85
35419;BME280;21525;41.240;16.500;2022-09-21T08:09:29;101563.53;;;32.85;27.22
35419;BME280;21525;41.240;16.500;2022-09-21T08:11:55;101565.31;;;33.32;26.21
35419;BME280;21525;41.240;16.500;2022-09-21T08:14:21;101563.78;;;33.57;25.82
35419;BME280;21525;41.240;16.500;2022-09-21T08:16:47;101572.50;;;32.47;26.87
35419;BME280;21525;41.240;16.500;2022-09-21T08:19:14;101583.16;;;30.43;30.54
35419;BME280;21525;41.240;16.500;2022-09-21T08:21:42;101578.44;;;32.41;28.49
35419;BME280;21525;41.240;16.500;2022-09-21T08:24:08;101554.78;;;30.61;30.31
35419;BME280;21525;41.240;16.500;2022-09-21T08:26:34;101575.28;;;32.26;27.97
35419;BME280;21525;41.240;16.500;2022-09-21T08:29:00;101573.88;;;32.99;26.63
35419;BME280;21525;41.240;16.500;2022-09-21T08:31:27;101582.41;;;32.85;26.34
35419;BME280;21525;41.240;16.500;2022-09-21T08:33:54;101582.97;;;31.90;26.54
35419;BME280;21525;41.240;16.500;2022-09-21T08:36:20;101582.28;;;32.77;26.03
35419;BME280;21525;41.240;16.500;2022-09-21T08:38:46;101587.78;;;32.65;26.54
35419;BME280;21525;41.240;16.500;2022-09-21T08:43:59;101580.16;;;31.82;27.46
35419;BME280;21525;41.240;16.500;2022-09-21T08:46:28;101587.19;;;32.23;27.39
35419;BME280;21525;41.240;16.500;2022-09-21T08:48:59;101589.84;;;31.01;28.91
35419;BME280;21525;41.240;16.500;2022-09-21T08:51:35;101599.50;;;31.04;29.35
35419;BME280;21525;41.240;16.500;2022-09-21T08:54:19;101602.59;;;30.24;30.19
35419;BME280;21525;41.240;16.500;2022-09-21T08:56:49;101603.19;;;30.28;29.06
35419;BME280;21525;41.240;16.500;2022-09-21T08:59:15;101607.91;;;29.13;30.57
35419;BME280;21525;41.240;16.500;2022-09-21T09:01:57;101606.06;;;30.04;29.71
35419;BME280;21525;41.240;16.500;2022-09-21T09:07:27;101606.38;;;30.97;27.52
35419;BME280;21525;41.240;16.500;2022-09-21T09:10:05;101610.31;;;29.73;28.66
35419;BME280;21525;41.240;16.500;2022-09-21T09:12:51;101605.44;;;29.67;29.54
35419;BME280;21525;41.240;16.500;2022-09-21T09:15:42;101602.03;;;31.05;29.01
35419;BME280;21525;41.240;16.500;2022-09-21T09:20:54;101604.91;;;30.93;29.51
35419;BME280;21525;41.240;16.500;2022-09-21T09:23:29;101606.97;;;29.36;30.71
35419;BME280;21525;41.240;16.500;2022-09-21T09:26:36;101598.06;;;30.25;30.46
35419;BME280;21525;41.240;16.500;2022-09-21T09:29:41;101607.97;;;28.89;31.26
35419;BME280;21525;41.240;16.500;2022-09-21T09:32:13;101608.44;;;30.72;29.24
35419;BME280;21525;41.240;16.500;2022-09-21T09:34:43;101597.53;;;31.06;28.32
35419;BME280;21525;41.240;16.500;2022-09-21T09:37:15;101607.56;;;31.04;28.62
35419;BME280;21525;41.240;16.500;2022-09-21T09:39:52;101599.66;;;30.91;29.49
35419;BME280;21525;41.240;16.500;2022-09-21T09:42:41;101600.22;;;30.53;28.85
35419;BME280;21525;41.240;16.500;2022-09-21T09:50:27;101610.25;;;27.85;32.73
35419;BME280;21525;41.240;16.500;2022-09-21T09:53:01;101594.03;;;28.25;31.61
35419;BME280;21525;41.240;16.500;2022-09-21T09:55:40;101606.25;;;28.40;32.27
35419;BME280;21525;41.240;16.500;2022-09-21T10:00:57;101586.94;;;30.40;28.08
35419;BME280;21525;41.240;16.500;2022-09-21T10:03:24;101588.84;;;29.39;29.78
35419;BME280;21525;41.240;16.500;2022-09-21T10:05:51;101592.81;;;27.92;31.82
35419;BME280;21525;41.240;16.500;2022-09-21T10:11:02;101590.91;;;28.18;31.08
35419;BME280;21525;41.240;16.500;2022-09-21T10:13:30;101606.72;;;27.85;30.71
35419;BME280;21525;41.240;16.500;2022-09-21T10:16:04;101599.28;;;28.61;30.84
35419;BME280;21525;41.240;16.500;2022-09-21T10:18:47;101601.19;;;28.12;31.92
35419;BME280;21525;41.240;16.500;2022-09-21T10:21:22;101604.47;;;27.15;33.60
35419;BME280;21525;41.240;16.500;2022-09-21T10:23:52;101592.16;;;28.97;31.55
35419;BME280;21525;41.240;16.500;2022-09-21T10:26:21;101600.56;;;28.21;31.80
35419;BME280;21525;41.240;16.500;2022-09-21T10:28:58;101598.94;;;27.69;32.60
35419;BME280;21525;41.240;16.500;2022-09-21T10:31:29;101600.22;;;28.13;32.28
35419;BME280;21525;41.240;16.500;2022-09-21T10:34:14;101603.72;;;27.89;32.83
35419;BME280;21525;41.240;16.500;2022-09-21T10:36:51;101607.81;;;28.19;32.29
35419;BME280;21525;41.240;16.500;2022-09-21T10:39:26;101585.31;;;26.56;34.34
35419;BME280;21525;41.240;16.500;2022-09-21T10:44:24;101598.78;;;29.15;30.71
35419;BME280;21525;41.240;16.500;2022-09-21T10:46:51;101601.47;;;28.80;31.34
35419;BME280;21525;41.240;16.500;2022-09-21T10:49:26;101587.03;;;28.94;31.55
35419;BME280;21525;41.240;16.500;2022-09-21T10:51:55;101599.31;;;28.85;31.84
35419;BME280;21525;41.240;16.500;2022-09-21T10:54:31;101600.69;;;28.06;33.00
35419;BME280;21525;41.240;16.500;2022-09-21T10:57:02;101606.75;;;28.93;31.32
35419;BME280;21525;41.240;16.500;2022-09-21T10:59:30;101613.03;;;27.20;33.23
35419;BME280;21525;41.240;16.500;2022-09-21T11:01:59;101599.63;;;27.96;32.04
35419;BME280;21525;41.240;16.500;2022-09-21T11:04:35;101608.28;;;26.98;34.08
35419;BME280;21525;41.240;16.500;2022-09-21T11:09:58;101606.00;;;29.37;31.51
35419;BME280;21525;41.240;16.500;2022-09-21T11:12:53;101605.06;;;28.44;32.71
35419;BME280;21525;41.240;16.500;2022-09-21T11:16:03;101597.75;;;28.94;30.64
35419;BME280;21525;41.240;16.500;2022-09-21T11:21:34;101599.22;;;29.44;31.67
35419;BME280;21525;41.240;16.500;2022-09-21T11:24:16;101606.19;;;27.67;33.55
35419;BME280;21525;41.240;16.500;2022-09-21T11:27:40;101603.00;;;27.74;33.67
35419;BME280;21525;41.240;16.500;2022-09-21T11:30:01;101609.41;;;28.82;31.83
35419;BME280;21525;41.240;16.500;2022-09-21T12:00:15;101591.50;;;27.98;33.01
35419;BME280;21525;41.240;16.500;2022-09-21T12:22:08;101588.41;;;28.75;32.51
35419;BME280;21525;41.240;16.500;2022-09-21T12:24:48;101585.69;;;28.17;33.88
35419;BME280;21525;41.240;16.500;2022-09-21T12:29:47;101586.50;;;28.30;33.38
35419;BME280;21525;41.240;16.500;2022-09-21T12:34:59;101597.84;;;27.33;35.53
35419;BME280;21525;41.240;16.500;2022-09-21T12:37:40;101589.66;;;28.11;34.75
35419;BME280;21525;41.240;16.500;2022-09-21T12:43:15;101607.56;;;27.09;35.29
35419;BME280;21525;41.240;16.500;2022-09-21T12:45:54;101599.16;;;28.15;33.92
35419;BME280;21525;41.240;16.500;2022-09-21T12:48:36;101595.41;;;27.68;34.10
35419;BME280;21525;41.240;16.500;2022-09-21T12:53:35;101591.88;;;28.17;33.86
35419;BME280;21525;41.240;16.500;2022-09-21T12:59:14;101586.13;;;27.23;34.82
35419;BME280;21525;41.240;16.500;2022-09-21T13:04:35;101594.75;;;27.52;34.98
35419;BME280;21525;41.240;16.500;2022-09-21T13:07:32;101587.59;;;27.65;34.29
35419;BME280;21525;41.240;16.500;2022-09-21T13:10:54;101581.94;;;28.06;34.55
35419;BME280;21525;41.240;16.500;2022-09-21T13:13:16;101581.06;;;27.82;34.54
35419;BME280;21525;41.240;16.500;2022-09-21T13:15:46;101588.78;;;27.23;35.50
35419;BME280;21525;41.240;16.500;2022-09-21T13:18:38;101587.50;;;27.67;34.80
35419;BME280;21525;41.240;16.500;2022-09-21T13:21:24;101590.69;;;26.96;36.25
35419;BME280;21525;41.240;16.500;2022-09-21T13:24:05;101570.72;;;26.62;36.98
35419;BME280;21525;41.240;16.500;2022-09-21T13:26:50;101573.81;;;27.71;34.83
35419;BME280;21525;41.240;16.500;2022-09-21T13:31:55;101581.31;;;27.28;35.45
35419;BME280;21525;41.240;16.500;2022-09-21T13:34:26;101559.28;;;27.37;35.19
35419;BME280;21525;41.240;16.500;2022-09-21T13:39:44;101555.50;;;27.91;33.92
35419;BME280;21525;41.240;16.500;2022-09-21T13:47:40;101561.41;;;27.07;35.84
35419;BME280;21525;41.240;16.500;2022-09-21T13:50:16;101565.59;;;27.62;34.36
35419;BME280;21525;41.240;16.500;2022-09-21T13:52:46;101562.47;;;27.68;35.14
35419;BME280;21525;41.240;16.500;2022-09-21T13:58:06;101562.78;;;28.13;33.64
35419;BME280;21525;41.240;16.500;2022-09-21T14:01:02;101559.06;;;27.40;35.07
35419;BME280;21525;41.240;16.500;2022-09-21T14:03:35;101557.00;;;28.19;34.32
35419;BME280;21525;41.240;16.500;2022-09-21T14:06:11;101559.91;;;27.41;34.29
35419;BME280;21525;41.240;16.500;2022-09-21T14:08:49;101565.72;;;27.22;35.06
35419;BME280;21525;41.240;16.500;2022-09-21T14:19:04;101562.94;;;27.24;34.95
35419;BME280;21525;41.240;16.500;2022-09-21T14:24:39;101566.25;;;27.27;35.60
35419;BME280;21525;41.240;16.500;2022-09-21T14:30:19;101563.78;;;27.50;34.43
35419;BME280;21525;41.240;16.500;2022-09-21T14:35:17;101565.91;;;27.32;35.29
35419;BME280;21525;41.240;16.500;2022-09-21T14:37:48;101564.00;;;27.59;34.65
35419;BME280;21525;41.240;16.500;2022-09-21T14:40:17;101572.25;;;25.84;36.91
35419;BME280;21525;41.240;16.500;2022-09-21T14:42:44;101560.41;;;26.43;36.65
35419;BME280;21525;41.240;16.500;2022-09-21T14:45:16;101558.53;;;27.10;35.52
35419;BME280;21525;41.240;16.500;2022-09-21T14:50:30;101564.72;;;26.58;36.11
35419;BME280;21525;41.240;16.500;2022-09-21T14:56:05;101565.69;;;26.57;37.39
35419;BME280;21525;41.240;16.500;2022-09-21T15:04:04;101566.09;;;27.03;36.15
35419;BME280;21525;41.240;16.500;2022-09-21T15:06:39;101564.63;;;27.12;35.46
35419;BME280;21525;41.240;16.500;2022-09-21T15:13:17;101562.06;;;27.36;36.16
35419;BME280;21525;41.240;16.500;2022-09-21T15:18:31;101569.22;;;27.10;36.22
35419;BME280;21525;41.240;16.500;2022-09-21T15:21:02;101563.34;;;27.30;36.08
35419;BME280;21525;41.240;16.500;2022-09-21T15:23:37;101564.22;;;27.18;37.02
35419;BME280;21525;41.240;16.500;2022-09-21T15:26:13;101575.63;;;27.07;36.94
35419;BME280;21525;41.240;16.500;2022-09-21T15:28:45;101579.50;;;26.76;37.01
35419;BME280;21525;41.240;16.500;2022-09-21T15:31:15;101567.59;;;26.55;38.10
35419;BME280;21525;41.240;16.500;2022-09-21T15:33:43;101574.53;;;26.58;37.37
35419;BME280;21525;41.240;16.500;2022-09-21T15:36:12;101572.53;;;27.39;36.30
35419;BME280;21525;41.240;16.500;2022-09-21T15:38:38;101564.84;;;26.96;37.72
35419;BME280;21525;41.240;16.500;2022-09-21T15:44:32;101554.81;;;27.25;37.25
35419;BME280;21525;41.240;16.500;2022-09-21T15:46:59;101565.66;;;26.97;37.72
35419;BME280;21525;41.240;16.500;2022-09-21T15:49:28;101559.41;;;26.58;38.66
35419;BME280;21525;41.240;16.500;2022-09-21T15:56:48;101561.59;;;26.25;39.80
35419;BME280;21525;41.240;16.500;2022-09-21T15:59:19;101565.53;;;26.86;39.03
35419;BME280;21525;41.240;16.500;2022-09-21T16:01:53;101559.84;;;26.77;38.88
35419;BME280;21525;41.240;16.500;2022-09-21T16:04:24;101559.41;;;26.58;38.51
35419;BME280;21525;41.240;16.500;2022-09-21T16:07:01;101556.97;;;26.41;38.89
35419;BME280;21525;41.240;16.500;2022-09-21T16:09:37;101557.72;;;26.43;39.06
35419;BME280;21525;41.240;16.500;2022-09-21T16:14:52;101558.19;;;26.50;39.04
35419;BME280;21525;41.240;16.500;2022-09-21T16:17:34;101556.84;;;26.16;39.59
35419;BME280;21525;41.240;16.500;2022-09-21T16:20:13;101556.81;;;26.30;39.69
35419;BME280;21525;41.240;16.500;2022-09-21T16:22:42;101566.16;;;25.96;40.19
35419;BME280;21525;41.240;16.500;2022-09-21T16:25:13;101571.28;;;26.80;39.31
35419;BME280;21525;41.240;16.500;2022-09-21T16:27:54;101564.28;;;26.64;39.57
35419;BME280;21525;41.240;16.500;2022-09-21T16:30:43;101557.22;;;26.51;39.63